Flight Track Log - Related Links

Times and Time Zones

All times are in EDT time to prevent confusion due to time zone crossing. See the PDT4373 flight status page for this flight to view local times or setup timezone preferences in your user account.

Time Position Orientation Groundspeed Altitude Reporting Facility
EDT Latitude Longitude Course Direction KTS MPH feet Rate Location/Type
Sun 10:50:00 AM 42.0261 -75.9200 180° South  Level Estimated
Sun 10:51:00 AM 41.9636 -75.9230 182° South  Level FlightAware Approximate
Sun 10:52:00 AM 41.9012 -75.9260 182° South  Level FlightAware Approximate
Sun 10:53:00 AM 41.8406 -75.9050 154° Southeast  Level Estimated
Sun 10:54:00 AM 41.7801 -75.8839 160° South  Level Estimated
Sun 10:55:00 AM 41.7196 -75.8629 159° South  Level Estimated
Sun 10:56:00 AM 41.6584 -75.8454 168° South  Level FlightAware Approximate
Sun 10:57:00 AM 41.5979 -75.8243 153° Southeast  Level Estimated
Sun 10:58:00 AM 41.5374 -75.8033 161° South  Level Estimated
Sun 10:59:00 AM 41.4781 -75.7769 162° South  Level FlightAware Approximate
Sun 11:00:00 AM 41.4187 -75.7506 162° South  Level FlightAware Approximate
Sun 11:01:00 AM 41.3581 -75.7301 162° South  Level Estimated
Sun 11:02:00 AM 41.2990 -75.7030 161° South  Level FlightAware Approximate
Sun 11:03:00 AM 41.2399 -75.6760 161° South  Level FlightAware Approximate
Sun 11:04:00 AM 41.1807 -75.6489 161° South  Level FlightAware Approximate
Sun 11:05:00 AM 41.1216 -75.6220 161° South  Level FlightAware Approximate
Sun 11:06:00 AM 41.0607 -75.6031 159° South  Level Estimated
Sun 11:07:00 AM 40.9998 -75.5842 163° South  Level Estimated
Sun 11:08:00 AM 40.9410 -75.5562 160° South  Level FlightAware Approximate
Sun 11:09:00 AM 40.8821 -75.5283 160° South  Level FlightAware Approximate
Sun 11:10:00 AM 40.8232 -75.5004 160° South  Level FlightAware Approximate
Sun 11:11:00 AM 40.7621 -75.4834 190° South  Level Estimated
Sun 11:12:00 AM 40.6996 -75.4874 183° South  Level FlightAware Approximate
Sun 11:13:00 AM 40.6371 -75.4913 183° South  Level FlightAware Approximate
Sun 11:14:00 AM 40.5765 -75.4713 187° South  Level Estimated
Sun 11:14:00 AM 40.6500 -75.4667 143° Southeast 242 278 7,600  Level Philadelphia TRACON
Sun 11:14:48 AM 40.5833 -75.4833 191° South 250 288 7,300 -444 Descending Philadelphia TRACON
Sun 11:15:00 AM 40.5151 -75.4871 191° South  Level FlightAware Approximate
Sun 11:15:48 AM 40.5167 -75.5000 191° South 250 288 6,800  Level Philadelphia TRACON
Sun 11:16:00 AM 40.4551 -75.4639 190° South  Level Estimated
Sun 11:16:48 AM 40.4500 -75.5167 191° South 251 289 6,300  Level Philadelphia TRACON
Sun 11:17:00 AM 40.3956 -75.4890 198° South  Level FlightAware Approximate
Sun 11:17:48 AM 40.3833 -75.5000 169° South 261 300 5,800  Level Philadelphia TRACON
Sun 11:18:00 AM 40.3368 -75.4609 180° South  Level Estimated
Sun 11:18:54 AM 40.3333 -75.4333 135° Southeast 255 293 5,200  Level Philadelphia TRACON
Sun 11:19:00 AM 40.2781 -75.4329 143° Southeast  Level Estimated
Sun 11:19:54 AM 40.2667 -75.3667 143° Southeast 253 291 5,000  Level Philadelphia TRACON
Sun 11:20:54 AM 40.2167 -75.3167 143° Southeast 243 280 5,000 -104 Level Philadelphia TRACON
Sun 11:21:49 AM 40.1667 -75.2667 143° Southeast 246 283 4,800 -365 Descending Philadelphia TRACON
Sun 11:22:49 AM 40.1000 -75.2333 159° South 252 290 4,300 -400 Descending Philadelphia TRACON
Sun 11:23:49 AM 40.0333 -75.2000 159° South 254 292 4,000 -150 Descending Philadelphia TRACON
Sun 11:24:49 AM 39.9833 -75.1833 166° South 222 255 4,000  Level Philadelphia TRACON
Sun 11:25:49 AM 39.9167 -75.1500 159° South 222 255 4,000 -250 Level Philadelphia TRACON
Sun 11:26:49 AM 39.8667 -75.1167 153° Southeast 213 245 3,500 -800 Descending Philadelphia TRACON
Sun 11:27:49 AM 39.8167 -75.1167 180° South 155 178 2,400 -950 Descending Philadelphia TRACON
Sun 11:28:49 AM 39.8167 -75.1667 270° West 132 152 1,600 -600 Descending Philadelphia TRACON
Sun 11:29:49 AM 39.8333 -75.2000 303° West 94 108 1,200 -500 Descending Philadelphia TRACON
Sun 11:30:49 AM 39.8500 -75.2167 322° Northwest 107 123 600 -600 Descending Philadelphia TRACON

Login

Don't have an account? Register now (free) for customized features, flight alerts, and more!